sensor_id;sensor_type;location;lat;lon;timestamp;temperature;humidity
71254;HTU21D;59019;47.638;18.966;2022-08-19T00:00:07;22.34;70.46
71254;HTU21D;59019;47.638;18.966;2022-08-19T00:02:34;22.34;70.44
71254;HTU21D;59019;47.638;18.966;2022-08-19T00:05:00;22.47;69.84
71254;HTU21D;59019;47.638;18.966;2022-08-19T00:07:25;22.34;70.32
71254;HTU21D;59019;47.638;18.966;2022-08-19T00:09:51;22.32;70.61
71254;HTU21D;59019;47.638;18.966;2022-08-19T00:12:16;22.22;71.06
71254;HTU21D;59019;47.638;18.966;2022-08-19T00:14:42;22.19;71.03
71254;HTU21D;59019;47.638;18.966;2022-08-19T00:17:08;22.16;71.06
71254;HTU21D;59019;47.638;18.966;2022-08-19T00:19:34;22.11;71.00
71254;HTU21D;59019;47.638;18.966;2022-08-19T00:22:01;22.08;71.20
71254;HTU21D;59019;47.638;18.966;2022-08-19T00:24:28;22.11;71.29
71254;HTU21D;59019;47.638;18.966;2022-08-19T00:26:55;22.03;71.51
71254;HTU21D;59019;47.638;18.966;2022-08-19T00:29:24;21.97;71.51
71254;HTU21D;59019;47.638;18.966;2022-08-19T00:31:51;21.88;71.78
71254;HTU21D;59019;47.638;18.966;2022-08-19T00:34:20;21.88;71.71
71254;HTU21D;59019;47.638;18.966;2022-08-19T00:36:46;21.81;72.16
71254;HTU21D;59019;47.638;18.966;2022-08-19T00:39:12;21.90;71.97
71254;HTU21D;59019;47.638;18.966;2022-08-19T00:41:38;21.82;72.31
71254;HTU21D;59019;47.638;18.966;2022-08-19T00:44:18;21.80;72.35
71254;HTU21D;59019;47.638;18.966;2022-08-19T00:46:47;21.73;72.78
71254;HTU21D;59019;47.638;18.966;2022-08-19T00:49:24;21.74;72.74
71254;HTU21D;59019;47.638;18.966;2022-08-19T00:51:55;21.74;72.67
71254;HTU21D;59019;47.638;18.966;2022-08-19T00:54:21;21.70;72.77
71254;HTU21D;59019;47.638;18.966;2022-08-19T00:56:48;21.67;72.85
71254;HTU21D;59019;47.638;18.966;2022-08-19T00:59:17;21.58;73.18
71254;HTU21D;59019;47.638;18.966;2022-08-19T01:01:44;21.62;73.01
71254;HTU21D;59019;47.638;18.966;2022-08-19T01:04:12;21.65;73.04
71254;HTU21D;59019;47.638;18.966;2022-08-19T01:06:39;21.61;73.19
71254;HTU21D;59019;47.638;18.966;2022-08-19T01:09:07;21.58;73.34
71254;HTU21D;59019;47.638;18.966;2022-08-19T01:11:36;21.55;73.48
71254;HTU21D;59019;47.638;18.966;2022-08-19T01:14:03;21.54;73.50
71254;HTU21D;59019;47.638;18.966;2022-08-19T01:16:29;21.57;73.57
71254;HTU21D;59019;47.638;18.966;2022-08-19T01:18:55;21.51;73.83
71254;HTU21D;59019;47.638;18.966;2022-08-19T01:21:36;21.49;73.83
71254;HTU21D;59019;47.638;18.966;2022-08-19T01:24:03;21.47;73.99
71254;HTU21D;59019;47.638;18.966;2022-08-19T01:26:29;21.45;74.06
71254;HTU21D;59019;47.638;18.966;2022-08-19T01:28:57;21.40;74.38
71254;HTU21D;59019;47.638;18.966;2022-08-19T01:31:26;21.34;74.65
71254;HTU21D;59019;47.638;18.966;2022-08-19T01:33:54;21.43;74.27
71254;HTU21D;59019;47.638;18.966;2022-08-19T01:36:32;21.44;74.18
71254;HTU21D;59019;47.638;18.966;2022-08-19T01:39:00;21.42;74.51
71254;HTU21D;59019;47.638;18.966;2022-08-19T01:41:26;21.40;74.42
71254;HTU21D;59019;47.638;18.966;2022-08-19T01:43:52;21.28;74.38
71254;HTU21D;59019;47.638;18.966;2022-08-19T01:46:19;21.11;75.17
71254;HTU21D;59019;47.638;18.966;2022-08-19T01:48:45;21.10;75.36
71254;HTU21D;59019;47.638;18.966;2022-08-19T01:51:12;21.08;75.49
71254;HTU21D;59019;47.638;18.966;2022-08-19T01:53:38;21.09;75.54
71254;HTU21D;59019;47.638;18.966;2022-08-19T01:56:05;21.04;75.46
71254;HTU21D;59019;47.638;18.966;2022-08-19T01:58:35;20.98;75.78
71254;HTU21D;59019;47.638;18.966;2022-08-19T02:01:03;20.99;75.69
71254;HTU21D;59019;47.638;18.966;2022-08-19T02:03:29;20.95;75.93
71254;HTU21D;59019;47.638;18.966;2022-08-19T02:05:57;20.95;75.85
71254;HTU21D;59019;47.638;18.966;2022-08-19T02:08:26;20.98;75.81
71254;HTU21D;59019;47.638;18.966;2022-08-19T02:10:51;20.95;75.73
71254;HTU21D;59019;47.638;18.966;2022-08-19T02:13:18;20.95;75.74
71254;HTU21D;59019;47.638;18.966;2022-08-19T02:15:44;20.95;75.82
71254;HTU21D;59019;47.638;18.966;2022-08-19T02:18:11;20.90;75.75
71254;HTU21D;59019;47.638;18.966;2022-08-19T02:20:38;20.86;76.41
71254;HTU21D;59019;47.638;18.966;2022-08-19T02:23:06;20.84;76.38
71254;HTU21D;59019;47.638;18.966;2022-08-19T02:25:31;20.87;76.31
71254;HTU21D;59019;47.638;18.966;2022-08-19T02:27:57;20.87;76.18
71254;HTU21D;59019;47.638;18.966;2022-08-19T02:30:23;20.80;76.37
71254;HTU21D;59019;47.638;18.966;2022-08-19T02:32:50;20.79;76.51
71254;HTU21D;59019;47.638;18.966;2022-08-19T02:35:16;20.74;76.56
71254;HTU21D;59019;47.638;18.966;2022-08-19T02:37:43;20.79;76.61
71254;HTU21D;59019;47.638;18.966;2022-08-19T02:40:29;20.64;77.23
71254;HTU21D;59019;47.638;18.966;2022-08-19T02:42:55;20.62;77.06
71254;HTU21D;59019;47.638;18.966;2022-08-19T02:45:21;20.61;77.15
71254;HTU21D;59019;47.638;18.966;2022-08-19T02:47:48;20.59;77.21
71254;HTU21D;59019;47.638;18.966;2022-08-19T02:50:13;20.59;77.23
71254;HTU21D;59019;47.638;18.966;2022-08-19T02:52:40;20.54;77.76
71254;HTU21D;59019;47.638;18.966;2022-08-19T02:55:06;20.57;77.34
71254;HTU21D;59019;47.638;18.966;2022-08-19T02:57:32;20.51;77.63
71254;HTU21D;59019;47.638;18.966;2022-08-19T02:59:58;20.53;77.64
71254;HTU21D;59019;47.638;18.966;2022-08-19T03:02:24;20.46;77.83
71254;HTU21D;59019;47.638;18.966;2022-08-19T03:04:49;20.41;78.12
71254;HTU21D;59019;47.638;18.966;2022-08-19T03:07:17;20.50;77.68
71254;HTU21D;59019;47.638;18.966;2022-08-19T03:09:44;20.49;77.60
71254;HTU21D;59019;47.638;18.966;2022-08-19T03:12:10;20.46;77.89
71254;HTU21D;59019;47.638;18.966;2022-08-19T03:14:36;20.46;78.08
71254;HTU21D;59019;47.638;18.966;2022-08-19T03:17:03;20.36;78.40
71254;HTU21D;59019;47.638;18.966;2022-08-19T03:19:30;20.34;78.86
71254;HTU21D;59019;47.638;18.966;2022-08-19T03:21:57;20.31;78.82
71254;HTU21D;59019;47.638;18.966;2022-08-19T03:24:22;20.33;78.68
71254;HTU21D;59019;47.638;18.966;2022-08-19T03:26:51;20.33;78.94
71254;HTU21D;59019;47.638;18.966;2022-08-19T03:29:18;20.31;78.80
71254;HTU21D;59019;47.638;18.966;2022-08-19T03:31:46;20.25;78.97
71254;HTU21D;59019;47.638;18.966;2022-08-19T03:34:18;20.22;79.02
71254;HTU21D;59019;47.638;18.966;2022-08-19T03:36:44;20.28;78.95
71254;HTU21D;59019;47.638;18.966;2022-08-19T03:39:10;20.24;79.32
71254;HTU21D;59019;47.638;18.966;2022-08-19T03:41:39;20.17;79.50
71254;HTU21D;59019;47.638;18.966;2022-08-19T03:44:05;20.15;79.59
71254;HTU21D;59019;47.638;18.966;2022-08-19T03:46:33;20.15;79.48
71254;HTU21D;59019;47.638;18.966;2022-08-19T03:49:01;20.16;79.51
71254;HTU21D;59019;47.638;18.966;2022-08-19T03:51:38;20.18;80.01
71254;HTU21D;59019;47.638;18.966;2022-08-19T03:54:06;20.18;80.36
71254;HTU21D;59019;47.638;18.966;2022-08-19T03:56:38;20.22;80.02
71254;HTU21D;59019;47.638;18.966;2022-08-19T03:59:06;20.25;79.70
71254;HTU21D;59019;47.638;18.966;2022-08-19T04:01:31;20.28;79.85
71254;HTU21D;59019;47.638;18.966;2022-08-19T04:03:58;20.30;79.49
71254;HTU21D;59019;47.638;18.966;2022-08-19T04:06:28;20.30;79.74
71254;HTU21D;59019;47.638;18.966;2022-08-19T04:08:56;20.35;79.55
71254;HTU21D;59019;47.638;18.966;2022-08-19T04:11:28;20.32;79.45
71254;HTU21D;59019;47.638;18.966;2022-08-19T04:13:54;20.31;79.57
71254;HTU21D;59019;47.638;18.966;2022-08-19T04:16:21;20.33;79.71
71254;HTU21D;59019;47.638;18.966;2022-08-19T04:18:48;20.41;79.49
71254;HTU21D;59019;47.638;18.966;2022-08-19T04:21:24;20.53;79.15
71254;HTU21D;59019;47.638;18.966;2022-08-19T04:23:50;20.62;78.59
71254;HTU21D;59019;47.638;18.966;2022-08-19T04:26:25;20.68;78.28
71254;HTU21D;59019;47.638;18.966;2022-08-19T04:28:52;20.72;78.36
71254;HTU21D;59019;47.638;18.966;2022-08-19T04:31:23;20.80;78.13
71254;HTU21D;59019;47.638;18.966;2022-08-19T04:33:53;20.94;77.96
71254;HTU21D;59019;47.638;18.966;2022-08-19T04:36:28;21.01;77.67
71254;HTU21D;59019;47.638;18.966;2022-08-19T04:39:00;21.08;77.43
71254;HTU21D;59019;47.638;18.966;2022-08-19T04:41:27;21.24;77.45
71254;HTU21D;59019;47.638;18.966;2022-08-19T04:44:14;21.38;78.25
71254;HTU21D;59019;47.638;18.966;2022-08-19T04:46:44;21.44;77.35
71254;HTU21D;59019;47.638;18.966;2022-08-19T04:49:09;21.48;77.10
71254;HTU21D;59019;47.638;18.966;2022-08-19T04:51:35;21.55;76.52
71254;HTU21D;59019;47.638;18.966;2022-08-19T04:54:03;21.61;76.53
71254;HTU21D;59019;47.638;18.966;2022-08-19T04:56:29;21.61;76.72
71254;HTU21D;59019;47.638;18.966;2022-08-19T04:58:56;21.74;76.07
71254;HTU21D;59019;47.638;18.966;2022-08-19T05:01:27;21.88;75.42
71254;HTU21D;59019;47.638;18.966;2022-08-19T05:03:59;22.10;73.95
71254;HTU21D;59019;47.638;18.966;2022-08-19T05:06:26;22.22;73.52
71254;HTU21D;59019;47.638;18.966;2022-08-19T05:08:51;22.47;72.87
71254;HTU21D;59019;47.638;18.966;2022-08-19T05:11:25;22.68;72.03
71254;HTU21D;59019;47.638;18.966;2022-08-19T05:13:51;22.88;71.55
71254;HTU21D;59019;47.638;18.966;2022-08-19T05:16:20;23.01;70.93
71254;HTU21D;59019;47.638;18.966;2022-08-19T05:18:46;23.22;70.09
71254;HTU21D;59019;47.638;18.966;2022-08-19T05:21:32;23.44;69.32
71254;HTU21D;59019;47.638;18.966;2022-08-19T05:24:17;23.72;68.09
71254;HTU21D;59019;47.638;18.966;2022-08-19T05:26:46;23.98;67.17
71254;HTU21D;59019;47.638;18.966;2022-08-19T05:29:14;24.19;66.54
71254;HTU21D;59019;47.638;18.966;2022-08-19T05:31:40;24.47;65.91
71254;HTU21D;59019;47.638;18.966;2022-08-19T05:34:06;24.68;64.97
71254;HTU21D;59019;47.638;18.966;2022-08-19T05:36:41;24.88;64.24
71254;HTU21D;59019;47.638;18.966;2022-08-19T05:39:11;25.15;63.84
71254;HTU21D;59019;47.638;18.966;2022-08-19T05:41:42;25.33;63.48
71254;HTU21D;59019;47.638;18.966;2022-08-19T05:44:07;25.62;62.35
71254;HTU21D;59019;47.638;18.966;2022-08-19T05:46:35;25.72;61.73
71254;HTU21D;59019;47.638;18.966;2022-08-19T05:49:04;25.89;61.52
71254;HTU21D;59019;47.638;18.966;2022-08-19T05:51:31;26.11;60.86
71254;HTU21D;59019;47.638;18.966;2022-08-19T05:53:58;26.26;59.96
71254;HTU21D;59019;47.638;18.966;2022-08-19T05:56:23;26.31;60.09
71254;HTU21D;59019;47.638;18.966;2022-08-19T05:58:49;26.34;59.73
71254;HTU21D;59019;47.638;18.966;2022-08-19T06:01:17;26.53;59.48
71254;HTU21D;59019;47.638;18.966;2022-08-19T06:03:44;26.77;59.22
71254;HTU21D;59019;47.638;18.966;2022-08-19T06:06:11;26.96;58.71
71254;HTU21D;59019;47.638;18.966;2022-08-19T06:08:37;27.19;58.01
71254;HTU21D;59019;47.638;18.966;2022-08-19T06:11:35;27.27;57.48
71254;HTU21D;59019;47.638;18.966;2022-08-19T06:14:04;27.37;57.10
71254;HTU21D;59019;47.638;18.966;2022-08-19T06:16:30;27.50;57.04
71254;HTU21D;59019;47.638;18.966;2022-08-19T06:19:00;27.58;56.62
71254;HTU21D;59019;47.638;18.966;2022-08-19T06:21:27;27.70;56.31
71254;HTU21D;59019;47.638;18.966;2022-08-19T06:23:54;27.91;56.02
71254;HTU21D;59019;47.638;18.966;2022-08-19T06:26:21;28.08;55.41
71254;HTU21D;59019;47.638;18.966;2022-08-19T06:28:48;28.31;55.21
71254;HTU21D;59019;47.638;18.966;2022-08-19T06:31:18;28.35;54.82
71254;HTU21D;59019;47.638;18.966;2022-08-19T06:33:47;28.27;54.87
71254;HTU21D;59019;47.638;18.966;2022-08-19T06:36:18;28.57;54.67
71254;HTU21D;59019;47.638;18.966;2022-08-19T06:38:44;28.62;54.65
71254;HTU21D;59019;47.638;18.966;2022-08-19T06:41:09;28.97;54.31
71254;HTU21D;59019;47.638;18.966;2022-08-19T06:43:35;29.12;53.52
71254;HTU21D;59019;47.638;18.966;2022-08-19T06:46:01;29.22;53.13
71254;HTU21D;59019;47.638;18.966;2022-08-19T06:48:29;29.36;52.54
71254;HTU21D;59019;47.638;18.966;2022-08-19T06:50:55;29.38;52.35
71254;HTU21D;59019;47.638;18.966;2022-08-19T06:53:21;29.42;52.40
71254;HTU21D;59019;47.638;18.966;2022-08-19T06:55:48;29.60;52.30
71254;HTU21D;59019;47.638;18.966;2022-08-19T06:58:22;29.88;51.93
71254;HTU21D;59019;47.638;18.966;2022-08-19T07:00:48;30.00;50.91
71254;HTU21D;59019;47.638;18.966;2022-08-19T07:03:13;30.17;51.18
71254;HTU21D;59019;47.638;18.966;2022-08-19T07:05:40;29.85;52.05
71254;HTU21D;59019;47.638;18.966;2022-08-19T07:08:06;30.27;51.24
71254;HTU21D;59019;47.638;18.966;2022-08-19T07:10:32;30.60;50.26
71254;HTU21D;59019;47.638;18.966;2022-08-19T07:13:00;30.56;50.34
71254;HTU21D;59019;47.638;18.966;2022-08-19T07:15:26;30.92;50.09
71254;HTU21D;59019;47.638;18.966;2022-08-19T07:17:52;31.13;49.36
71254;HTU21D;59019;47.638;18.966;2022-08-19T07:20:19;31.34;48.66
71254;HTU21D;59019;47.638;18.966;2022-08-19T07:22:44;31.34;48.73
71254;HTU21D;59019;47.638;18.966;2022-08-19T07:25:11;31.22;48.96
71254;HTU21D;59019;47.638;18.966;2022-08-19T07:27:38;31.34;48.61
71254;HTU21D;59019;47.638;18.966;2022-08-19T07:30:05;31.43;48.47
71254;HTU21D;59019;47.638;18.966;2022-08-19T07:32:30;31.59;47.79
71254;HTU21D;59019;47.638;18.966;2022-08-19T07:34:56;31.85;47.24
71254;HTU21D;59019;47.638;18.966;2022-08-19T07:37:23;32.03;46.99
71254;HTU21D;59019;47.638;18.966;2022-08-19T07:39:49;32.16;47.52
71254;HTU21D;59019;47.638;18.966;2022-08-19T07:42:14;32.56;46.44
71254;HTU21D;59019;47.638;18.966;2022-08-19T07:44:41;32.69;45.83
71254;HTU21D;59019;47.638;18.966;2022-08-19T07:47:06;33.08;45.28
71254;HTU21D;59019;47.638;18.966;2022-08-19T07:49:32;33.47;44.77
71254;HTU21D;59019;47.638;18.966;2022-08-19T07:52:02;33.86;43.96
71254;HTU21D;59019;47.638;18.966;2022-08-19T07:54:32;33.80;43.32
71254;HTU21D;59019;47.638;18.966;2022-08-19T07:57:00;33.97;43.59
71254;HTU21D;59019;47.638;18.966;2022-08-19T07:59:26;34.14;42.82
71254;HTU21D;59019;47.638;18.966;2022-08-19T08:01:54;34.30;42.48
71254;HTU21D;59019;47.638;18.966;2022-08-19T08:04:19;34.75;41.91
71254;HTU21D;59019;47.638;18.966;2022-08-19T08:07:06;34.89;41.79
71254;HTU21D;59019;47.638;18.966;2022-08-19T08:09:51;35.33;41.64
71254;HTU21D;59019;47.638;18.966;2022-08-19T08:12:26;35.53;40.78
71254;HTU21D;59019;47.638;18.966;2022-08-19T08:14:59;35.49;40.90
71254;HTU21D;59019;47.638;18.966;2022-08-19T08:17:28;35.92;40.34
71254;HTU21D;59019;47.638;18.966;2022-08-19T08:19:54;35.97;39.69
71254;HTU21D;59019;47.638;18.966;2022-08-19T08:22:21;36.21;39.19
71254;HTU21D;59019;47.638;18.966;2022-08-19T08:25:18;36.26;39.30
71254;HTU21D;59019;47.638;18.966;2022-08-19T08:27:46;36.58;39.01
71254;HTU21D;59019;47.638;18.966;2022-08-19T08:30:23;36.63;38.66
71254;HTU21D;59019;47.638;18.966;2022-08-19T08:32:49;36.87;38.21
71254;HTU21D;59019;47.638;18.966;2022-08-19T08:35:19;37.07;38.08
71254;HTU21D;59019;47.638;18.966;2022-08-19T08:37:47;37.26;37.75
71254;HTU21D;59019;47.638;18.966;2022-08-19T08:42:58;37.07;37.21
71254;HTU21D;59019;47.638;18.966;2022-08-19T08:45:28;37.00;37.42
71254;HTU21D;59019;47.638;18.966;2022-08-19T08:47:56;37.08;37.08
71254;HTU21D;59019;47.638;18.966;2022-08-19T08:50:33;36.71;37.46
71254;HTU21D;59019;47.638;18.966;2022-08-19T08:53:06;36.95;36.87
71254;HTU21D;59019;47.638;18.966;2022-08-19T08:55:32;36.61;37.07
71254;HTU21D;59019;47.638;18.966;2022-08-19T08:58:03;36.93;37.61
71254;HTU21D;59019;47.638;18.966;2022-08-19T09:00:33;36.99;37.11
71254;HTU21D;59019;47.638;18.966;2022-08-19T09:03:00;37.00;36.56
71254;HTU21D;59019;47.638;18.966;2022-08-19T09:05:54;37.34;36.51
71254;HTU21D;59019;47.638;18.966;2022-08-19T09:11:08;37.41;35.72
71254;HTU21D;59019;47.638;18.966;2022-08-19T09:13:38;37.51;35.76
71254;HTU21D;59019;47.638;18.966;2022-08-19T09:16:10;37.85;35.51
71254;HTU21D;59019;47.638;18.966;2022-08-19T09:18:48;37.96;34.94
71254;HTU21D;59019;47.638;18.966;2022-08-19T09:21:15;38.15;34.97
71254;HTU21D;59019;47.638;18.966;2022-08-19T09:23:40;38.24;34.58
71254;HTU21D;59019;47.638;18.966;2022-08-19T09:26:11;38.17;34.57
71254;HTU21D;59019;47.638;18.966;2022-08-19T09:28:39;37.97;34.74
71254;HTU21D;59019;47.638;18.966;2022-08-19T09:31:12;37.99;34.47
71254;HTU21D;59019;47.638;18.966;2022-08-19T09:33:38;38.15;34.21
71254;HTU21D;59019;47.638;18.966;2022-08-19T09:36:10;38.29;33.72
71254;HTU21D;59019;47.638;18.966;2022-08-19T09:38:36;38.41;33.51
71254;HTU21D;59019;47.638;18.966;2022-08-19T09:41:15;38.41;33.89
71254;HTU21D;59019;47.638;18.966;2022-08-19T09:43:44;38.64;33.55
71254;HTU21D;59019;47.638;18.966;2022-08-19T09:46:10;38.83;32.86
71254;HTU21D;59019;47.638;18.966;2022-08-19T09:48:38;38.89;32.80
71254;HTU21D;59019;47.638;18.966;2022-08-19T09:51:10;38.83;32.45
71254;HTU21D;59019;47.638;18.966;2022-08-19T09:53:37;37.92;32.96
71254;HTU21D;59019;47.638;18.966;2022-08-19T09:56:04;38.63;32.94
71254;HTU21D;59019;47.638;18.966;2022-08-19T09:58:31;38.85;32.39
71254;HTU21D;59019;47.638;18.966;2022-08-19T10:00:58;39.03;32.37
71254;HTU21D;59019;47.638;18.966;2022-08-19T10:03:26;39.26;32.26
71254;HTU21D;59019;47.638;18.966;2022-08-19T10:05:52;38.78;32.07
71254;HTU21D;59019;47.638;18.966;2022-08-19T10:08:24;39.14;31.67
71254;HTU21D;59019;47.638;18.966;2022-08-19T10:10:51;39.47;31.35
71254;HTU21D;59019;47.638;18.966;2022-08-19T10:13:19;39.61;31.36
71254;HTU21D;59019;47.638;18.966;2022-08-19T10:15:48;39.40;30.79
71254;HTU21D;59019;47.638;18.966;2022-08-19T10:18:17;39.45;30.87
71254;HTU21D;59019;47.638;18.966;2022-08-19T10:20:43;39.78;30.74
71254;HTU21D;59019;47.638;18.966;2022-08-19T10:23:12;39.99;30.24
71254;HTU21D;59019;47.638;18.966;2022-08-19T10:25:37;40.29;30.20
71254;HTU21D;59019;47.638;18.966;2022-08-19T10:28:03;40.32;29.81
71254;HTU21D;59019;47.638;18.966;2022-08-19T10:30:31;40.50;29.77
71254;HTU21D;59019;47.638;18.966;2022-08-19T10:32:56;40.48;29.93
71254;HTU21D;59019;47.638;18.966;2022-08-19T10:35:22;39.95;30.52
71254;HTU21D;59019;47.638;18.966;2022-08-19T10:37:49;39.71;30.43
71254;HTU21D;59019;47.638;18.966;2022-08-19T10:40:14;39.98;30.42
71254;HTU21D;59019;47.638;18.966;2022-08-19T10:42:40;39.74;30.90
71254;HTU21D;59019;47.638;18.966;2022-08-19T10:45:06;40.08;30.67
71254;HTU21D;59019;47.638;18.966;2022-08-19T10:47:33;40.28;30.61
71254;HTU21D;59019;47.638;18.966;2022-08-19T10:49:58;40.22;30.54
71254;HTU21D;59019;47.638;18.966;2022-08-19T10:52:45;39.71;30.56
71254;HTU21D;59019;47.638;18.966;2022-08-19T10:55:12;39.95;30.77
71254;HTU21D;59019;47.638;18.966;2022-08-19T10:57:57;39.84;30.66
71254;HTU21D;59019;47.638;18.966;2022-08-19T11:00:24;39.95;30.79
71254;HTU21D;59019;47.638;18.966;2022-08-19T11:02:51;39.89;31.03
71254;HTU21D;59019;47.638;18.966;2022-08-19T11:05:18;40.35;30.40
71254;HTU21D;59019;47.638;18.966;2022-08-19T11:07:44;40.65;30.13
71254;HTU21D;59019;47.638;18.966;2022-08-19T11:10:13;40.84;29.89
71254;HTU21D;59019;47.638;18.966;2022-08-19T11:12:40;40.99;29.56
71254;HTU21D;59019;47.638;18.966;2022-08-19T11:15:07;41.10;29.12
71254;HTU21D;59019;47.638;18.966;2022-08-19T11:17:34;41.29;29.16
71254;HTU21D;59019;47.638;18.966;2022-08-19T11:20:02;41.27;28.76
71254;HTU21D;59019;47.638;18.966;2022-08-19T11:22:30;41.04;28.81
71254;HTU21D;59019;47.638;18.966;2022-08-19T11:24:55;41.15;28.92
71254;HTU21D;59019;47.638;18.966;2022-08-19T11:27:21;41.33;28.74
71254;HTU21D;59019;47.638;18.966;2022-08-19T11:29:47;41.33;28.75
71254;HTU21D;59019;47.638;18.966;2022-08-19T11:32:12;41.63;28.75
71254;HTU21D;59019;47.638;18.966;2022-08-19T11:34:38;41.65;28.44
71254;HTU21D;59019;47.638;18.966;2022-08-19T11:37:06;41.92;28.15
71254;HTU21D;59019;47.638;18.966;2022-08-19T11:39:35;41.74;28.32
71254;HTU21D;59019;47.638;18.966;2022-08-19T11:42:03;41.19;28.81
71254;HTU21D;59019;47.638;18.966;2022-08-19T11:44:50;41.11;29.07
71254;HTU21D;59019;47.638;18.966;2022-08-19T11:47:16;41.18;28.83
71254;HTU21D;59019;47.638;18.966;2022-08-19T11:49:41;41.29;28.51
71254;HTU21D;59019;47.638;18.966;2022-08-19T11:52:09;41.40;29.15
71254;HTU21D;59019;47.638;18.966;2022-08-19T11:54:35;41.60;28.13
71254;HTU21D;59019;47.638;18.966;2022-08-19T11:57:02;42.18;28.27
71254;HTU21D;59019;47.638;18.966;2022-08-19T11:59:28;42.51;27.72
71254;HTU21D;59019;47.638;18.966;2022-08-19T12:01:54;42.53;27.61
71254;HTU21D;59019;47.638;18.966;2022-08-19T12:04:22;42.69;27.22
71254;HTU21D;59019;47.638;18.966;2022-08-19T12:06:47;42.37;27.39
71254;HTU21D;59019;47.638;18.966;2022-08-19T12:09:15;41.94;28.03
71254;HTU21D;59019;47.638;18.966;2022-08-19T12:11:43;41.52;28.52
71254;HTU21D;59019;47.638;18.966;2022-08-19T12:14:10;41.70;28.64
71254;HTU21D;59019;47.638;18.966;2022-08-19T12:16:37;41.34;28.21
71254;HTU21D;59019;47.638;18.966;2022-08-19T12:19:04;40.92;28.49
71254;HTU21D;59019;47.638;18.966;2022-08-19T12:21:32;40.19;29.39
71254;HTU21D;59019;47.638;18.966;2022-08-19T12:23:59;40.03;29.79
71254;HTU21D;59019;47.638;18.966;2022-08-19T12:26:27;40.13;29.64
71254;HTU21D;59019;47.638;18.966;2022-08-19T12:28:53;40.08;29.20
71254;HTU21D;59019;47.638;18.966;2022-08-19T12:31:19;39.73;29.49
71254;HTU21D;59019;47.638;18.966;2022-08-19T12:33:45;39.66;29.56
71254;HTU21D;59019;47.638;18.966;2022-08-19T12:36:13;39.81;29.48
71254;HTU21D;59019;47.638;18.966;2022-08-19T12:38:40;40.09;29.36
71254;HTU21D;59019;47.638;18.966;2022-08-19T12:41:09;40.56;29.11
71254;HTU21D;59019;47.638;18.966;2022-08-19T12:43:36;40.43;28.74
71254;HTU21D;59019;47.638;18.966;2022-08-19T12:46:04;39.43;30.16
71254;HTU21D;59019;47.638;18.966;2022-08-19T12:48:31;39.70;30.15
71254;HTU21D;59019;47.638;18.966;2022-08-19T12:50:57;40.33;29.49
71254;HTU21D;59019;47.638;18.966;2022-08-19T12:53:22;40.63;28.87
71254;HTU21D;59019;47.638;18.966;2022-08-19T12:55:55;40.73;29.12
71254;HTU21D;59019;47.638;18.966;2022-08-19T12:58:21;41.16;28.59
71254;HTU21D;59019;47.638;18.966;2022-08-19T13:00:47;41.72;27.62
71254;HTU21D;59019;47.638;18.966;2022-08-19T13:03:12;42.00;27.45
71254;HTU21D;59019;47.638;18.966;2022-08-19T13:05:38;41.71;27.44
71254;HTU21D;59019;47.638;18.966;2022-08-19T13:08:04;41.94;27.45
71254;HTU21D;59019;47.638;18.966;2022-08-19T13:10:33;42.02;27.18
71254;HTU21D;59019;47.638;18.966;2022-08-19T13:13:04;41.50;27.13
71254;HTU21D;59019;47.638;18.966;2022-08-19T13:15:34;40.92;27.58
71254;HTU21D;59019;47.638;18.966;2022-08-19T13:18:00;40.30;28.26
71254;HTU21D;59019;47.638;18.966;2022-08-19T13:20:26;40.28;28.60
71254;HTU21D;59019;47.638;18.966;2022-08-19T13:22:53;40.13;28.38
71254;HTU21D;59019;47.638;18.966;2022-08-19T13:25:19;40.31;28.26
71254;HTU21D;59019;47.638;18.966;2022-08-19T13:27:47;40.67;28.00
71254;HTU21D;59019;47.638;18.966;2022-08-19T13:30:14;40.99;27.00
71254;HTU21D;59019;47.638;18.966;2022-08-19T13:32:59;40.74;27.52
71254;HTU21D;59019;47.638;18.966;2022-08-19T13:35:44;40.15;27.80
71254;HTU21D;59019;47.638;18.966;2022-08-19T13:38:11;39.71;28.50
71254;HTU21D;59019;47.638;18.966;2022-08-19T13:40:37;39.42;29.00
71254;HTU21D;59019;47.638;18.966;2022-08-19T13:43:04;39.03;29.59
71254;HTU21D;59019;47.638;18.966;2022-08-19T13:45:31;38.76;29.94
71254;HTU21D;59019;47.638;18.966;2022-08-19T13:48:01;38.33;30.08
71254;HTU21D;59019;47.638;18.966;2022-08-19T13:50:32;38.07;31.28
71254;HTU21D;59019;47.638;18.966;2022-08-19T13:52:59;37.93;31.45
71254;HTU21D;59019;47.638;18.966;2022-08-19T13:55:25;36.85;35.44
71254;HTU21D;59019;47.638;18.966;2022-08-19T13:57:56;35.99;37.49
71254;HTU21D;59019;47.638;18.966;2022-08-19T14:00:28;35.04;39.41
71254;HTU21D;59019;47.638;18.966;2022-08-19T14:02:56;34.78;40.05
71254;HTU21D;59019;47.638;18.966;2022-08-19T14:05:23;34.37;41.17
71254;HTU21D;59019;47.638;18.966;2022-08-19T14:07:49;34.36;41.66
71254;HTU21D;59019;47.638;18.966;2022-08-19T14:10:16;33.92;42.43
71254;HTU21D;59019;47.638;18.966;2022-08-19T14:12:43;34.29;41.87
71254;HTU21D;59019;47.638;18.966;2022-08-19T14:15:10;34.46;41.70
71254;HTU21D;59019;47.638;18.966;2022-08-19T14:17:42;34.24;41.78
71254;HTU21D;59019;47.638;18.966;2022-08-19T14:20:09;34.26;42.15
71254;HTU21D;59019;47.638;18.966;2022-08-19T14:22:38;34.23;42.13
71254;HTU21D;59019;47.638;18.966;2022-08-19T14:25:05;33.90;42.31
71254;HTU21D;59019;47.638;18.966;2022-08-19T14:27:36;33.91;42.21
71254;HTU21D;59019;47.638;18.966;2022-08-19T14:30:06;33.62;42.87
71254;HTU21D;59019;47.638;18.966;2022-08-19T14:32:32;33.72;42.36
71254;HTU21D;59019;47.638;18.966;2022-08-19T14:34:58;33.96;41.94
71254;HTU21D;59019;47.638;18.966;2022-08-19T14:37:24;34.17;41.28
71254;HTU21D;59019;47.638;18.966;2022-08-19T14:39:50;34.26;41.01
71254;HTU21D;59019;47.638;18.966;2022-08-19T14:42:16;33.92;41.25
71254;HTU21D;59019;47.638;18.966;2022-08-19T14:44:42;33.12;42.61
71254;HTU21D;59019;47.638;18.966;2022-08-19T14:47:09;33.02;43.35
71254;HTU21D;59019;47.638;18.966;2022-08-19T14:49:35;32.79;43.87
71254;HTU21D;59019;47.638;18.966;2022-08-19T14:52:01;32.91;43.72
71254;HTU21D;59019;47.638;18.966;2022-08-19T14:54:28;32.90;43.84
71254;HTU21D;59019;47.638;18.966;2022-08-19T14:56:54;32.74;44.35
71254;HTU21D;59019;47.638;18.966;2022-08-19T14:59:19;33.08;44.18
71254;HTU21D;59019;47.638;18.966;2022-08-19T15:01:45;32.82;44.18
71254;HTU21D;59019;47.638;18.966;2022-08-19T15:04:11;32.53;44.51
71254;HTU21D;59019;47.638;18.966;2022-08-19T15:06:37;31.95;44.71
71254;HTU21D;59019;47.638;18.966;2022-08-19T15:09:03;32.04;44.74
71254;HTU21D;59019;47.638;18.966;2022-08-19T15:11:29;32.35;44.51
71254;HTU21D;59019;47.638;18.966;2022-08-19T15:13:59;32.50;42.65